createdAt,value
2022-11-05T00:01:35.142Z,9.67
2022-11-05T00:04:20.550Z,9.66
2022-11-05T00:07:05.535Z,9.66
2022-11-05T00:09:32.960Z,9.67
2022-11-05T00:12:19.993Z,9.68
2022-11-05T00:15:04.837Z,9.68
2022-11-05T00:17:31.257Z,9.64
2022-11-05T00:19:57.715Z,9.66
2022-11-05T00:22:43.527Z,9.68
2022-11-05T00:25:18.758Z,9.72
2022-11-05T00:27:49.991Z,9.72
2022-11-05T00:30:18.475Z,9.75
2022-11-05T00:32:45.847Z,9.75
2022-11-05T00:35:12.563Z,9.70
2022-11-05T00:37:39.046Z,9.71
2022-11-05T00:40:05.826Z,9.72
2022-11-05T00:42:51.046Z,9.72
2022-11-05T00:45:17.516Z,9.74
2022-11-05T00:48:02.444Z,9.74
2022-11-05T00:50:29.110Z,9.76
2022-11-05T00:52:57.156Z,9.80
2022-11-05T00:55:25.355Z,9.77
2022-11-05T00:57:51.907Z,9.78
2022-11-05T01:00:18.608Z,9.81
2022-11-05T01:02:45.227Z,9.79
2022-11-05T01:05:12.039Z,9.78
2022-11-05T01:07:38.429Z,9.81
2022-11-05T01:10:05.050Z,9.82
2022-11-05T01:12:31.856Z,9.82
2022-11-05T01:14:58.833Z,9.82
2022-11-05T01:17:25.403Z,9.82
2022-11-05T01:19:51.781Z,9.84
2022-11-05T01:22:18.167Z,9.84
2022-11-05T01:24:44.556Z,9.84
2022-11-05T01:27:10.912Z,9.85
2022-11-05T01:29:37.317Z,9.85
2022-11-05T01:32:03.773Z,9.86
2022-11-05T01:34:30.171Z,9.87
2022-11-05T01:36:56.551Z,9.87
2022-11-05T01:39:22.981Z,9.87
2022-11-05T01:41:49.428Z,9.88
2022-11-05T01:44:34.640Z,9.87
2022-11-05T01:47:01.409Z,9.88
2022-11-05T01:49:31.580Z,9.88
2022-11-05T01:51:59.897Z,9.87
2022-11-05T01:54:27.889Z,9.86
2022-11-05T01:56:56.452Z,9.86
2022-11-05T01:59:34.455Z,9.84
2022-11-05T02:02:02.258Z,9.85
2022-11-05T02:04:35.588Z,9.85
2022-11-05T02:07:03.013Z,9.83
2022-11-05T02:09:35.642Z,9.85
2022-11-05T02:12:02.231Z,9.87
2022-11-05T02:14:28.688Z,9.88
2022-11-05T02:17:04.576Z,9.89
2022-11-05T02:19:37.042Z,9.86
2022-11-05T02:22:06.659Z,9.87
2022-11-05T02:24:52.002Z,9.87
2022-11-05T02:27:24.388Z,9.90
2022-11-05T02:29:50.788Z,9.91
2022-11-05T02:32:35.837Z,9.92
2022-11-05T02:35:11.280Z,9.93
2022-11-05T02:37:44.120Z,9.94
2022-11-05T02:40:29.232Z,9.94
2022-11-05T02:43:07.162Z,9.94
2022-11-05T02:45:36.510Z,9.95
2022-11-05T02:48:18.160Z,9.93
2022-11-05T02:50:44.507Z,9.92
2022-11-05T02:53:15.183Z,9.92
2022-11-05T02:55:41.516Z,9.92
2022-11-05T02:58:08.443Z,9.91
2022-11-05T03:00:43.662Z,9.91
2022-11-05T03:03:16.147Z,9.91
2022-11-05T03:06:05.567Z,9.91
2022-11-05T03:08:31.980Z,9.91
2022-11-05T03:11:01.793Z,9.86
2022-11-05T03:13:33.853Z,9.85
2022-11-05T03:16:03.026Z,9.87
2022-11-05T03:18:49.937Z,9.87
2022-11-05T03:21:20.382Z,9.90
2022-11-05T03:23:54.772Z,9.92
2022-11-05T03:26:25.639Z,9.90
2022-11-05T03:28:55.858Z,9.87
2022-11-05T03:31:24.257Z,9.85
2022-11-05T03:33:51.885Z,9.88
2022-11-05T03:36:27.579Z,9.86
2022-11-05T03:38:55.410Z,9.84
2022-11-05T03:41:22.715Z,9.81
2022-11-05T03:43:50.468Z,9.77
2022-11-05T03:46:16.825Z,9.74
2022-11-05T03:48:47.294Z,9.79
2022-11-05T03:51:23.650Z,9.86
2022-11-05T03:53:51.820Z,9.87
2022-11-05T03:56:18.294Z,9.91
2022-11-05T03:58:45.605Z,9.93
2022-11-05T04:01:12.651Z,9.95
2022-11-05T04:03:39.089Z,9.97
2022-11-05T04:06:25.072Z,9.98
2022-11-05T04:09:09.900Z,9.99
2022-11-05T04:11:54.944Z,10.01
2022-11-05T04:14:21.418Z,10.00
2022-11-05T04:17:11.104Z,10.00
2022-11-05T04:19:57.106Z,10.02
2022-11-05T04:22:43.013Z,10.02
2022-11-05T04:25:09.753Z,10.03
2022-11-05T04:27:36.280Z,10.02
2022-11-05T04:30:18.454Z,10.03
2022-11-05T04:32:56.741Z,10.04
2022-11-05T04:35:23.260Z,10.02
2022-11-05T04:37:49.883Z,10.00
2022-11-05T04:40:16.263Z,10.01
2022-11-05T04:42:42.623Z,10.02
2022-11-05T04:45:09.123Z,10.03
2022-11-05T04:47:35.500Z,10.03
2022-11-05T04:50:02.024Z,10.04
2022-11-05T04:52:28.738Z,10.05
2022-11-05T04:54:55.151Z,10.06
2022-11-05T04:57:21.587Z,10.03
2022-11-05T04:59:48.454Z,10.03
2022-11-05T05:02:14.956Z,10.04
2022-11-05T05:04:41.403Z,10.05
2022-11-05T05:07:07.817Z,10.04
2022-11-05T05:09:34.179Z,10.05
2022-11-05T05:12:01.574Z,10.05
2022-11-05T05:14:28.112Z,10.07
2022-11-05T05:16:54.613Z,10.09
2022-11-05T05:19:20.989Z,10.08
2022-11-05T05:21:47.371Z,10.06
2022-11-05T05:24:13.887Z,10.01
2022-11-05T05:26:47.652Z,9.99
2022-11-05T05:29:14.625Z,9.99
2022-11-05T05:31:41.350Z,10.00
2022-11-05T05:34:10.209Z,10.03
2022-11-05T05:36:36.581Z,10.03
2022-11-05T05:39:05.631Z,10.04
2022-11-05T05:41:32.068Z,10.05
2022-11-05T05:43:58.584Z,10.06
2022-11-05T05:46:25.162Z,10.06
2022-11-05T05:48:51.986Z,10.01
2022-11-05T05:51:19.008Z,9.98
2022-11-05T05:53:45.618Z,10.02
2022-11-05T05:56:14.981Z,10.04
2022-11-05T05:58:41.433Z,10.05
2022-11-05T06:01:18.914Z,10.06
2022-11-05T06:03:45.609Z,10.07
2022-11-05T06:06:13.209Z,10.09
2022-11-05T06:08:39.681Z,10.03
2022-11-05T06:11:06.472Z,10.04
2022-11-05T06:13:33.214Z,10.06
2022-11-05T06:16:01.541Z,10.07
2022-11-05T06:18:28.426Z,10.03
2022-11-05T06:20:55.955Z,10.00
2022-11-05T06:23:22.412Z,10.01
2022-11-05T06:25:48.763Z,10.00
2022-11-05T06:28:15.129Z,10.04
2022-11-05T06:30:41.501Z,10.07
2022-11-05T06:33:07.991Z,10.07
2022-11-05T06:35:34.433Z,10.08
2022-11-05T06:38:01.141Z,10.09
2022-11-05T06:40:28.345Z,10.09
2022-11-05T06:42:54.945Z,10.10
2022-11-05T06:45:22.006Z,10.11
2022-11-05T06:47:48.424Z,10.12
2022-11-05T06:50:14.835Z,10.14
2022-11-05T06:52:41.495Z,10.15
2022-11-05T06:55:08.200Z,10.14
2022-11-05T06:57:36.978Z,10.13
2022-11-05T07:00:07.800Z,10.09
2022-11-05T07:02:34.668Z,10.05
2022-11-05T07:05:01.042Z,10.05
2022-11-05T07:07:27.460Z,10.10
2022-11-05T07:09:53.848Z,10.11
2022-11-05T07:12:20.218Z,10.14
2022-11-05T07:14:46.600Z,10.16
2022-11-05T07:17:12.999Z,10.17
2022-11-05T07:19:39.706Z,10.18
2022-11-05T07:22:06.083Z,10.16
2022-11-05T07:24:32.491Z,10.16
2022-11-05T07:26:58.921Z,10.19
2022-11-05T07:29:25.319Z,10.19
2022-11-05T07:31:51.668Z,10.19
2022-11-05T07:34:18.065Z,10.22
2022-11-05T07:36:44.464Z,10.24
2022-11-05T07:39:10.845Z,10.23
2022-11-05T07:41:37.267Z,10.23
2022-11-05T07:44:04.014Z,10.23
2022-11-05T07:46:30.469Z,10.21
2022-11-05T07:48:56.830Z,10.19
2022-11-05T07:51:23.217Z,10.17
2022-11-05T07:53:49.641Z,10.20
2022-11-05T07:56:16.070Z,10.23
2022-11-05T07:58:42.505Z,10.23
2022-11-05T08:01:09.231Z,10.23
2022-11-05T08:03:35.809Z,10.20
2022-11-05T08:06:02.253Z,10.20
2022-11-05T08:08:28.629Z,10.21
2022-11-05T08:11:01.780Z,10.14
2022-11-05T08:13:28.185Z,10.05
2022-11-05T08:15:56.417Z,9.99
2022-11-05T08:18:22.871Z,9.94
2022-11-05T08:20:49.484Z,9.95
2022-11-05T08:23:16.116Z,9.94
2022-11-05T08:25:42.682Z,9.97
2022-11-05T08:28:11.018Z,9.93
2022-11-05T08:30:37.656Z,9.92
2022-11-05T08:33:08.501Z,9.97
2022-11-05T08:35:36.077Z,10.00
2022-11-05T08:38:03.614Z,10.02
2022-11-05T08:40:31.539Z,9.92
2022-11-05T08:42:58.346Z,9.90
2022-11-05T08:45:25.250Z,9.88
2022-11-05T08:47:51.636Z,9.87
2022-11-05T08:50:18.068Z,9.90
2022-11-05T08:52:44.436Z,9.86
2022-11-05T08:55:10.892Z,9.86
2022-11-05T08:57:37.320Z,9.83
2022-11-05T09:00:03.864Z,9.85
2022-11-05T09:02:30.303Z,9.85
2022-11-05T09:04:56.685Z,9.82
2022-11-05T09:07:23.153Z,9.84
2022-11-05T09:09:49.573Z,9.86
2022-11-05T09:12:15.986Z,9.84
2022-11-05T09:14:42.370Z,9.86
2022-11-05T09:17:16.942Z,9.88
2022-11-05T09:19:43.647Z,9.90
2022-11-05T09:22:12.739Z,9.90
2022-11-05T09:24:39.775Z,9.87
2022-11-05T09:27:06.595Z,9.86
2022-11-05T09:29:32.988Z,9.80
2022-11-05T09:31:59.606Z,9.81
2022-11-05T09:34:26.029Z,9.73
2022-11-05T09:36:52.474Z,9.70
2022-11-05T09:39:18.849Z,9.64
2022-11-05T09:41:45.800Z,9.61
2022-11-05T09:44:17.939Z,9.58
2022-11-05T09:46:46.572Z,9.55
2022-11-05T09:49:35.197Z,9.46
2022-11-05T09:52:01.942Z,9.44
2022-11-05T09:54:29.588Z,9.50
2022-11-05T09:56:56.320Z,9.50
2022-11-05T09:59:26.303Z,9.46
2022-11-05T10:01:56.454Z,9.41
2022-11-05T10:04:26.248Z,9.38
2022-11-05T10:06:57.660Z,9.43
2022-11-05T10:09:26.620Z,9.42
2022-11-05T10:11:57.890Z,9.40
2022-11-05T10:14:27.079Z,9.39
2022-11-05T10:17:00.781Z,9.42
2022-11-05T10:19:31.469Z,9.46
2022-11-05T10:22:09.032Z,9.51
2022-11-05T10:24:35.465Z,9.52
2022-11-05T10:27:02.755Z,9.57
2022-11-05T10:29:30.294Z,9.62
2022-11-05T10:31:58.342Z,9.62
2022-11-05T10:34:30.704Z,9.62
2022-11-05T10:36:57.258Z,9.63
2022-11-05T10:39:24.658Z,9.66
2022-11-05T10:42:09.706Z,9.62
2022-11-05T10:44:48.546Z,9.59
2022-11-05T10:47:32.437Z,9.61
2022-11-05T10:50:09.646Z,9.53
2022-11-05T10:52:37.824Z,9.46
2022-11-05T10:55:07.494Z,9.44
2022-11-05T10:57:33.881Z,9.52
2022-11-05T11:00:15.744Z,9.53
2022-11-05T11:02:51.013Z,9.58
2022-11-05T11:05:23.668Z,9.63
2022-11-05T11:07:57.638Z,9.65
2022-11-05T11:10:25.033Z,9.69
2022-11-05T11:12:52.050Z,9.68
2022-11-05T11:15:18.402Z,9.69
2022-11-05T11:17:44.764Z,9.60
2022-11-05T11:20:14.235Z,9.56
2022-11-05T11:22:40.595Z,9.52
2022-11-05T11:25:25.172Z,9.50
2022-11-05T11:27:52.198Z,9.48
2022-11-05T11:30:20.036Z,9.48
2022-11-05T11:32:47.389Z,9.46
2022-11-05T11:35:24.161Z,9.42
2022-11-05T11:37:53.933Z,9.37
2022-11-05T11:40:29.195Z,9.41
2022-11-05T11:42:57.360Z,9.41
2022-11-05T11:45:38.255Z,9.47
2022-11-05T11:48:05.835Z,9.47
2022-11-05T11:50:42.796Z,9.45
2022-11-05T11:53:21.411Z,9.52
2022-11-05T11:55:59.709Z,9.58
2022-11-05T11:58:37.205Z,9.57
2022-11-05T12:01:09.431Z,9.54
2022-11-05T12:03:41.396Z,9.53
2022-11-05T12:06:25.041Z,9.52
2022-11-05T12:09:03.599Z,9.49
2022-11-05T12:11:41.842Z,9.46
2022-11-05T12:14:17.131Z,9.52
2022-11-05T12:16:52.829Z,9.57
2022-11-05T12:19:37.836Z,9.59
2022-11-05T12:22:04.217Z,9.63
2022-11-05T12:24:35.764Z,9.63
2022-11-05T12:27:08.090Z,9.65
2022-11-05T12:29:38.341Z,9.68
2022-11-05T12:32:23.536Z,9.67
2022-11-05T12:35:05.274Z,9.67
2022-11-05T12:37:31.609Z,9.72
2022-11-05T12:39:57.966Z,9.71
2022-11-05T12:42:42.751Z,9.68
2022-11-05T12:45:35.733Z,9.64
2022-11-05T12:48:15.999Z,9.67
2022-11-05T12:50:53.011Z,9.74
2022-11-05T12:53:31.636Z,9.77
2022-11-05T12:56:04.643Z,9.76
2022-11-05T12:58:36.876Z,9.81
2022-11-05T13:01:23.244Z,9.84
2022-11-05T13:03:53.521Z,9.89
2022-11-05T13:06:25.748Z,9.89
2022-11-05T13:08:58.639Z,9.88
2022-11-05T13:11:28.519Z,9.91
2022-11-05T13:13:54.941Z,9.83
2022-11-05T13:16:38.435Z,9.85
2022-11-05T13:19:17.094Z,9.88
2022-11-05T13:21:45.482Z,9.87
2022-11-05T13:24:21.600Z,9.85
2022-11-05T13:26:54.175Z,9.78
2022-11-05T13:29:23.794Z,9.73
2022-11-05T13:31:53.392Z,9.73
2022-11-05T13:34:19.932Z,9.79
2022-11-05T13:37:07.692Z,9.84
2022-11-05T13:39:36.282Z,9.88
2022-11-05T13:42:08.559Z,9.86
2022-11-05T13:44:47.070Z,9.86
2022-11-05T13:47:22.274Z,9.83
2022-11-05T13:49:48.673Z,9.82
2022-11-05T13:52:33.403Z,9.78
2022-11-05T13:55:20.800Z,9.82
2022-11-05T13:57:53.168Z,9.86
2022-11-05T14:00:21.204Z,9.88
2022-11-05T14:02:53.489Z,9.88
2022-11-05T14:05:25.163Z,9.90
2022-11-05T14:07:52.460Z,9.88
2022-11-05T14:10:18.830Z,9.84
2022-11-05T14:12:50.230Z,9.76
2022-11-05T14:15:26.934Z,9.71
2022-11-05T14:17:55.034Z,9.69
2022-11-05T14:20:30.374Z,9.70
2022-11-05T14:23:15.869Z,9.72
2022-11-05T14:25:43.701Z,9.68
2022-11-05T14:28:33.100Z,9.64
2022-11-05T14:30:59.746Z,9.64
2022-11-05T14:33:26.098Z,9.66
2022-11-05T14:35:53.749Z,9.68
2022-11-05T14:38:22.321Z,9.66
2022-11-05T14:40:48.955Z,9.63
2022-11-05T14:43:20.411Z,9.55
2022-11-05T14:45:52.926Z,9.46
2022-11-05T14:48:37.530Z,9.46
2022-11-05T14:51:19.038Z,9.40
2022-11-05T14:53:45.494Z,9.42
2022-11-05T14:56:14.618Z,9.42
2022-11-05T14:58:41.769Z,9.37
2022-11-05T15:01:14.302Z,9.35
2022-11-05T15:03:45.873Z,9.34
2022-11-05T15:06:28.595Z,9.30
2022-11-05T15:09:11.370Z,9.33
2022-11-05T15:11:39.476Z,9.38
2022-11-05T15:14:21.251Z,9.31
2022-11-05T15:16:50.137Z,9.36
2022-11-05T15:19:37.147Z,9.41
2022-11-05T15:22:05.918Z,9.46
2022-11-05T15:24:33.607Z,9.50
2022-11-05T15:27:02.721Z,9.53
2022-11-05T15:29:30.590Z,9.53
2022-11-05T15:31:58.461Z,9.53
2022-11-05T15:34:29.949Z,9.55
2022-11-05T15:37:28.726Z,9.55
2022-11-05T15:39:55.680Z,9.54
2022-11-05T15:42:23.559Z,9.55
2022-11-05T15:44:50.003Z,9.53
2022-11-05T15:47:18.012Z,9.50
2022-11-05T15:49:46.066Z,9.47
2022-11-05T15:52:13.781Z,9.47
2022-11-05T15:54:40.401Z,9.49
2022-11-05T15:57:14.853Z,9.47
2022-11-05T15:59:45.969Z,9.40
2022-11-05T16:02:40.271Z,9.42
2022-11-05T16:05:11.444Z,9.46
2022-11-05T16:07:41.784Z,9.50
2022-11-05T16:10:17.088Z,9.52
2022-11-05T16:12:43.539Z,9.55
2022-11-05T16:15:09.891Z,9.55
2022-11-05T16:17:39.129Z,9.54
2022-11-05T16:20:19.628Z,9.56
2022-11-05T16:22:46.762Z,9.56
2022-11-05T16:25:23.842Z,9.56
2022-11-05T16:27:50.322Z,9.57
2022-11-05T16:30:18.080Z,9.54
2022-11-05T16:32:44.491Z,9.53
2022-11-05T16:35:16.733Z,9.51
2022-11-05T16:37:46.340Z,9.46
2022-11-05T16:40:20.413Z,9.47
2022-11-05T16:42:48.557Z,9.49
2022-11-05T16:45:16.736Z,9.50
2022-11-05T16:47:43.877Z,9.50
2022-11-05T16:50:30.535Z,9.52
2022-11-05T16:52:56.939Z,9.51
2022-11-05T16:55:23.562Z,9.50
2022-11-05T16:57:52.059Z,9.52
2022-11-05T17:00:19.307Z,9.45
2022-11-05T17:02:46.198Z,9.45
2022-11-05T17:05:20.760Z,9.46
2022-11-05T17:07:47.224Z,9.48
2022-11-05T17:10:14.038Z,9.48
2022-11-05T17:12:40.933Z,9.41
2022-11-05T17:15:19.410Z,9.36
2022-11-05T17:17:45.832Z,9.39
2022-11-05T17:20:28.529Z,9.45
2022-11-05T17:22:55.019Z,9.50
2022-11-05T17:25:21.503Z,9.52
2022-11-05T17:27:48.017Z,9.49
2022-11-05T17:30:14.470Z,9.43
2022-11-05T17:32:40.954Z,9.44
2022-11-05T17:35:08.002Z,9.42
2022-11-05T17:37:34.703Z,9.44
2022-11-05T17:40:01.577Z,9.47
2022-11-05T17:42:28.098Z,9.50
2022-11-05T17:44:54.485Z,9.50
2022-11-05T17:47:20.930Z,9.50
2022-11-05T17:49:47.321Z,9.47
2022-11-05T17:52:13.680Z,9.46
2022-11-05T17:54:40.051Z,9.48
2022-11-05T17:57:06.710Z,9.49
2022-11-05T17:59:33.402Z,9.47
2022-11-05T18:01:59.989Z,9.46
2022-11-05T18:04:26.475Z,9.47
2022-11-05T18:06:52.983Z,9.49
2022-11-05T18:09:19.375Z,9.49
2022-11-05T18:11:45.751Z,9.46
2022-11-05T18:14:12.084Z,9.44
2022-11-05T18:16:38.483Z,9.45
2022-11-05T18:19:05.009Z,9.48
2022-11-05T18:21:31.429Z,9.42
2022-11-05T18:23:58.030Z,9.39
2022-11-05T18:26:24.393Z,9.40
2022-11-05T18:28:50.774Z,9.41
2022-11-05T18:31:20.528Z,9.42
2022-11-05T18:33:47.661Z,9.44
2022-11-05T18:36:21.546Z,9.47
2022-11-05T18:38:48.165Z,9.49
2022-11-05T18:41:14.638Z,9.51
2022-11-05T18:43:41.201Z,9.55
2022-11-05T18:46:07.931Z,9.54
2022-11-05T18:48:34.641Z,9.55
2022-11-05T18:51:02.148Z,9.53
2022-11-05T18:53:28.717Z,9.46
2022-11-05T18:55:55.088Z,9.44
2022-11-05T18:58:21.448Z,9.48
2022-11-05T19:00:47.876Z,9.48
2022-11-05T19:03:14.426Z,9.50
2022-11-05T19:05:40.800Z,9.49
2022-11-05T19:08:07.679Z,9.49
2022-11-05T19:10:34.069Z,9.50
2022-11-05T19:13:00.439Z,9.51
2022-11-05T19:15:26.885Z,9.42
2022-11-05T19:17:53.273Z,9.41
2022-11-05T19:20:19.653Z,9.44
2022-11-05T19:22:46.082Z,9.45
2022-11-05T19:25:12.477Z,9.42
2022-11-05T19:27:39.300Z,9.43
2022-11-05T19:30:05.868Z,9.44
2022-11-05T19:32:32.390Z,9.42
2022-11-05T19:34:58.749Z,9.42
2022-11-05T19:37:25.155Z,9.43
2022-11-05T19:39:52.084Z,9.45
2022-11-05T19:42:18.446Z,9.47
2022-11-05T19:44:44.854Z,9.45
2022-11-05T19:47:11.325Z,9.37
2022-11-05T19:49:37.727Z,9.32
2022-11-05T19:52:04.168Z,9.19
2022-11-05T19:54:30.594Z,9.09
2022-11-05T19:56:57.373Z,9.09
2022-11-05T19:59:23.749Z,9.08
2022-11-05T20:01:50.223Z,9.13
2022-11-05T20:04:16.693Z,9.20
2022-11-05T20:06:43.072Z,9.23
2022-11-05T20:09:27.095Z,9.23
2022-11-05T20:11:54.949Z,9.27
2022-11-05T20:14:21.934Z,9.29
2022-11-05T20:16:48.844Z,9.31
2022-11-05T20:19:16.726Z,9.33
2022-11-05T20:21:43.220Z,9.31
2022-11-05T20:24:10.875Z,9.30
2022-11-05T20:26:37.289Z,9.34
2022-11-05T20:29:04.031Z,9.35
2022-11-05T20:31:30.712Z,9.35
2022-11-05T20:33:57.104Z,9.32
2022-11-05T20:36:24.470Z,9.28
2022-11-05T20:38:52.124Z,9.31
2022-11-05T20:41:18.971Z,9.35
2022-11-05T20:43:45.429Z,9.37
2022-11-05T20:46:12.501Z,9.40
2022-11-05T20:48:38.959Z,9.42
2022-11-05T20:51:06.750Z,9.42
2022-11-05T20:53:33.186Z,9.44
2022-11-05T20:56:02.560Z,9.46
2022-11-05T20:58:33.035Z,9.48
2022-11-05T21:00:59.420Z,9.42
2022-11-05T21:03:27.268Z,9.38
2022-11-05T21:05:56.520Z,9.37
2022-11-05T21:08:23.019Z,9.23
2022-11-05T21:10:51.346Z,9.18
2022-11-05T21:13:18.266Z,9.20
2022-11-05T21:15:52.137Z,9.15
2022-11-05T21:18:19.945Z,9.18
2022-11-05T21:20:46.893Z,9.18
2022-11-05T21:23:14.082Z,9.18
2022-11-05T21:25:41.023Z,9.23
2022-11-05T21:28:08.060Z,9.27
2022-11-05T21:30:36.178Z,9.29
2022-11-05T21:33:02.640Z,9.32
2022-11-05T21:35:29.008Z,9.30
2022-11-05T21:37:55.452Z,9.31
2022-11-05T21:40:21.822Z,9.33
2022-11-05T21:42:48.212Z,9.35
2022-11-05T21:45:14.977Z,9.29
2022-11-05T21:47:41.388Z,9.29
2022-11-05T21:50:08.086Z,9.24
2022-11-05T21:52:53.045Z,9.26
2022-11-05T21:55:37.967Z,9.31
2022-11-05T21:58:35.520Z,9.32
2022-11-05T22:01:01.922Z,9.31
2022-11-05T22:03:28.280Z,9.25
2022-11-05T22:05:56.386Z,9.17
2022-11-05T22:08:22.873Z,9.15
2022-11-05T22:10:49.253Z,9.19
2022-11-05T22:13:15.638Z,9.21
2022-11-05T22:15:42.023Z,9.12
2022-11-05T22:18:08.448Z,9.07
2022-11-05T22:20:37.310Z,9.06
2022-11-05T22:23:07.366Z,9.00
2022-11-05T22:25:36.923Z,9.01
2022-11-05T22:28:03.406Z,9.03
2022-11-05T22:30:32.599Z,9.05
2022-11-05T22:32:58.996Z,9.00
2022-11-05T22:35:25.374Z,8.91
2022-11-05T22:37:51.813Z,8.85
2022-11-05T22:40:19.546Z,8.80
2022-11-05T22:42:47.565Z,8.81
2022-11-05T22:45:13.925Z,8.88
2022-11-05T22:47:43.516Z,8.93
2022-11-05T22:50:10.042Z,8.96
2022-11-05T22:52:36.452Z,9.00
2022-11-05T22:55:05.023Z,9.01
2022-11-05T22:57:31.463Z,9.02
2022-11-05T22:59:57.830Z,9.04
2022-11-05T23:02:24.497Z,9.03
2022-11-05T23:04:52.810Z,9.07
2022-11-05T23:07:37.705Z,9.11
2022-11-05T23:10:22.663Z,9.14
2022-11-05T23:12:49.122Z,9.11
2022-11-05T23:15:34.004Z,9.05
2022-11-05T23:18:29.382Z,9.08
2022-11-05T23:21:16.962Z,9.08
2022-11-05T23:24:03.995Z,9.11
2022-11-05T23:26:52.675Z,9.13
2022-11-05T23:29:20.584Z,9.11
2022-11-05T23:32:05.710Z,9.11
2022-11-05T23:34:32.162Z,9.13
2022-11-05T23:37:16.988Z,9.07
2022-11-05T23:39:43.356Z,9.01
2022-11-05T23:42:28.857Z,8.96
2022-11-05T23:45:14.780Z,8.87
2022-11-05T23:47:59.874Z,8.74
2022-11-05T23:50:26.329Z,8.77
2022-11-05T23:52:53.708Z,8.82
2022-11-05T23:55:20.913Z,8.79
2022-11-05T23:57:47.361Z,8.76
